createdAt,value
2018-06-14T00:03:30.842Z,14.80
2018-06-14T00:08:32.998Z,14.80
2018-06-14T00:13:35.167Z,14.80
2018-06-14T00:18:37.346Z,14.80
2018-06-14T00:23:39.538Z,14.80
2018-06-14T00:28:41.731Z,14.80
2018-06-14T00:33:43.882Z,14.80
2018-06-14T00:38:46.074Z,14.80
2018-06-14T00:43:48.230Z,14.80
2018-06-14T00:48:50.374Z,14.80
2018-06-14T00:53:52.538Z,14.70
2018-06-14T00:58:54.850Z,14.70
2018-06-14T01:03:56.999Z,14.60
2018-06-14T01:08:59.198Z,14.50
2018-06-14T01:14:01.358Z,14.50
2018-06-14T01:19:03.626Z,14.50
2018-06-14T01:24:06.050Z,14.50
2018-06-14T01:29:08.217Z,14.50
2018-06-14T01:34:10.371Z,14.50
2018-06-14T01:39:12.509Z,14.40
2018-06-14T01:44:14.638Z,14.50
2018-06-14T01:49:16.814Z,14.40
2018-06-14T01:54:18.998Z,14.40
2018-06-14T01:59:21.170Z,14.40
2018-06-14T02:04:23.326Z,14.40
2018-06-14T02:09:25.468Z,14.40
2018-06-14T02:14:27.631Z,14.40
2018-06-14T02:19:29.798Z,14.40
2018-06-14T02:24:31.945Z,14.40
2018-06-14T02:29:34.115Z,14.30
2018-06-14T02:34:36.301Z,14.30
2018-06-14T02:39:38.539Z,14.30
2018-06-14T02:44:40.767Z,14.20
2018-06-14T02:49:44.374Z,14.20
2018-06-14T02:54:46.551Z,14.20
2018-06-14T02:59:48.750Z,14.20
2018-06-14T03:04:50.990Z,14.20
2018-06-14T03:09:53.174Z,14.20
2018-06-14T03:14:55.381Z,14.20
2018-06-14T03:19:57.561Z,14.20
2018-06-14T03:24:59.749Z,14.20
2018-06-14T03:30:01.962Z,14.10
2018-06-14T03:35:04.123Z,14.10
2018-06-14T03:40:06.276Z,14.10
2018-06-14T03:45:08.448Z,14.10
2018-06-14T03:50:10.629Z,14.10
2018-06-14T03:55:12.829Z,14.10
2018-06-14T04:00:15.014Z,14.10
2018-06-14T04:05:17.193Z,14.20
2018-06-14T04:10:19.568Z,14.20
2018-06-14T04:15:21.661Z,14.20
2018-06-14T04:20:23.807Z,14.20
2018-06-14T04:25:25.938Z,14.20
2018-06-14T04:30:28.071Z,14.30
2018-06-14T04:35:30.284Z,14.30
2018-06-14T04:40:32.446Z,14.40
2018-06-14T04:45:34.694Z,14.50
2018-06-14T04:50:37.519Z,14.60
2018-06-14T04:55:39.703Z,14.70
2018-06-14T05:00:42.717Z,14.70
2018-06-14T05:05:45.107Z,14.80
2018-06-14T05:10:47.294Z,14.90
2018-06-14T05:15:50.810Z,14.90
2018-06-14T05:20:53.306Z,15.00
2018-06-14T05:25:55.495Z,15.10
2018-06-14T05:30:57.668Z,15.20
2018-06-14T05:35:59.822Z,15.20
2018-06-14T05:41:02.012Z,15.30
2018-06-14T05:46:04.187Z,15.50
2018-06-14T05:51:06.350Z,15.60
2018-06-14T05:56:08.531Z,15.70
2018-06-14T06:01:10.739Z,15.80
2018-06-14T06:06:13.027Z,16.10
2018-06-14T06:11:15.458Z,16.40
2018-06-14T06:16:17.594Z,16.60
2018-06-14T06:21:19.755Z,16.50
2018-06-14T06:26:21.982Z,16.70
2018-06-14T06:31:24.114Z,16.70
2018-06-14T06:36:26.345Z,16.90
2018-06-14T06:41:28.574Z,16.90
2018-06-14T06:46:30.942Z,17.30
2018-06-14T06:51:33.098Z,17.20
2018-06-14T06:56:35.270Z,17.30
2018-06-14T07:01:37.418Z,17.10
2018-06-14T07:06:39.623Z,17.40
2018-06-14T07:11:41.814Z,17.10
2018-06-14T07:16:43.997Z,17.40
2018-06-14T07:21:46.348Z,17.80
2018-06-14T07:26:48.486Z,17.80
2018-06-14T07:31:50.750Z,18.30
2018-06-14T07:36:52.922Z,18.10
2018-06-14T07:41:55.097Z,19.10
2018-06-14T07:46:57.254Z,18.60
2018-06-14T07:51:59.406Z,18.30
2018-06-14T07:57:01.587Z,18.00
2018-06-14T08:02:03.770Z,18.10
2018-06-14T08:07:05.952Z,18.20
2018-06-14T08:12:08.139Z,18.20
2018-06-14T08:17:10.349Z,18.40
2018-06-14T08:22:12.554Z,18.40
2018-06-14T08:27:14.738Z,18.50
2018-06-14T08:32:16.901Z,18.60
2018-06-14T08:37:19.056Z,18.60
2018-06-14T08:42:21.190Z,18.50
2018-06-14T08:47:23.339Z,18.60
2018-06-14T08:52:25.506Z,18.70
2018-06-14T08:57:27.661Z,18.90
2018-06-14T09:02:29.813Z,18.70
2018-06-14T09:07:31.953Z,18.70
2018-06-14T09:12:34.204Z,18.50
2018-06-14T09:17:36.342Z,19.00
2018-06-14T09:22:38.501Z,19.50
2018-06-14T09:27:40.658Z,19.80
2018-06-14T09:32:42.805Z,20.20
2018-06-14T09:37:44.986Z,20.60
2018-06-14T09:42:47.181Z,20.00
2018-06-14T09:47:49.393Z,19.50
2018-06-14T09:52:51.706Z,19.50
2018-06-14T09:57:53.881Z,19.40
2018-06-14T10:02:56.060Z,19.60
2018-06-14T10:07:58.405Z,20.00
2018-06-14T10:13:00.593Z,19.40
2018-06-14T10:18:02.869Z,19.80
2018-06-14T10:23:05.065Z,20.00
2018-06-14T10:28:07.226Z,20.00
2018-06-14T10:33:09.424Z,20.00
2018-06-14T10:38:11.606Z,19.60
2018-06-14T10:43:13.801Z,19.40
2018-06-14T10:48:15.986Z,19.40
2018-06-14T10:53:18.346Z,19.40
2018-06-14T10:58:20.526Z,19.50
2018-06-14T11:03:22.723Z,19.60
2018-06-14T11:08:25.452Z,19.40
2018-06-14T11:13:28.100Z,19.50
2018-06-14T11:18:30.384Z,19.30
2018-06-14T11:23:32.686Z,19.80
2018-06-14T11:28:34.838Z,20.10
2018-06-14T11:33:37.056Z,20.20
2018-06-14T11:38:39.215Z,20.80
2018-06-14T11:43:41.390Z,20.90
2018-06-14T11:48:43.558Z,20.80
2018-06-14T11:53:45.727Z,20.10
2018-06-14T11:58:47.908Z,20.10
2018-06-14T12:03:50.079Z,19.80
2018-06-14T12:08:52.229Z,21.40
2018-06-14T12:13:54.422Z,20.80
2018-06-14T12:18:56.632Z,20.40
2018-06-14T12:23:58.839Z,20.90
2018-06-14T12:29:01.002Z,20.50
2018-06-14T12:34:03.318Z,21.00
2018-06-14T12:39:07.018Z,20.20
2018-06-14T12:44:09.432Z,20.80
2018-06-14T12:49:11.627Z,20.90
2018-06-14T12:54:13.822Z,20.90
2018-06-14T12:59:16.082Z,20.90
2018-06-14T13:04:18.253Z,20.80
2018-06-14T13:09:20.422Z,20.80
2018-06-14T13:14:22.610Z,20.40
2018-06-14T13:19:24.799Z,20.60
2018-06-14T13:24:32.858Z,21.00
2018-06-14T13:29:35.089Z,21.80
2018-06-14T13:34:37.854Z,22.10
2018-06-14T13:39:40.048Z,22.10
2018-06-14T13:44:42.214Z,21.90
2018-06-14T13:49:44.464Z,21.50
2018-06-14T13:54:46.651Z,21.70
2018-06-14T13:59:48.977Z,21.80
2018-06-14T14:04:51.194Z,21.80
2018-06-14T14:09:53.921Z,21.60
2018-06-14T14:14:56.327Z,21.70
2018-06-14T14:19:58.510Z,21.80
2018-06-14T14:25:00.694Z,21.00
2018-06-14T14:30:02.968Z,21.40
2018-06-14T14:35:05.147Z,22.00
2018-06-14T14:40:07.326Z,22.10
2018-06-14T14:45:09.477Z,21.80
2018-06-14T14:50:11.669Z,21.50
2018-06-14T14:55:14.026Z,21.80
2018-06-14T15:00:16.177Z,21.80
2018-06-14T15:05:18.310Z,22.10
2018-06-14T15:10:20.470Z,21.90
2018-06-14T15:15:22.616Z,21.70
2018-06-14T15:20:24.853Z,22.00
2018-06-14T15:25:27.005Z,22.00
2018-06-14T15:30:29.186Z,21.80
2018-06-14T15:35:31.346Z,21.90
2018-06-14T15:40:33.493Z,22.00
2018-06-14T15:45:35.682Z,21.90
2018-06-14T15:50:37.841Z,21.70
2018-06-14T15:56:10.903Z,21.40
2018-06-14T16:01:13.095Z,21.40
2018-06-14T16:06:15.323Z,21.20
2018-06-14T16:11:17.474Z,21.40
2018-06-14T16:16:19.626Z,21.50
2018-06-14T16:21:21.762Z,21.80
2018-06-14T16:26:24.047Z,21.70
2018-06-14T16:31:26.198Z,21.60
2018-06-14T16:36:28.366Z,21.40
2018-06-14T16:41:30.505Z,21.20
2018-06-14T16:46:32.729Z,21.30
2018-06-14T16:51:34.946Z,21.20
2018-06-14T16:56:37.104Z,21.40
2018-06-14T17:01:39.262Z,21.30
2018-06-14T17:06:41.423Z,21.20
2018-06-14T17:11:43.613Z,21.20
2018-06-14T17:16:45.783Z,21.20
2018-06-14T17:21:47.929Z,21.20
2018-06-14T17:26:50.074Z,21.20
2018-06-14T17:31:52.228Z,21.20
2018-06-14T17:36:54.450Z,21.00
2018-06-14T17:41:56.626Z,21.00
2018-06-14T17:46:58.774Z,21.00
2018-06-14T17:52:00.939Z,21.00
2018-06-14T17:57:03.185Z,21.00
2018-06-14T18:02:05.357Z,20.90
2018-06-14T18:07:07.554Z,20.80
2018-06-14T18:12:09.786Z,20.80
2018-06-14T18:17:12.007Z,20.80
2018-06-14T18:22:14.135Z,20.80
2018-06-14T18:27:16.350Z,20.60
2018-06-14T18:32:18.547Z,20.50
2018-06-14T18:37:20.742Z,20.40
2018-06-14T18:42:23.081Z,20.20
2018-06-14T18:47:26.092Z,20.40
2018-06-14T18:52:28.318Z,20.30
2018-06-14T18:57:30.563Z,20.10
2018-06-14T19:02:32.726Z,20.00
2018-06-14T19:07:34.908Z,19.90
2018-06-14T19:12:37.237Z,19.90
2018-06-14T19:17:39.673Z,19.80
2018-06-14T19:22:41.926Z,19.70
2018-06-14T19:27:44.089Z,19.70
2018-06-14T19:32:46.267Z,19.60
2018-06-14T19:37:48.415Z,19.60
2018-06-14T19:42:50.628Z,19.70
2018-06-14T19:47:52.801Z,19.50
2018-06-14T19:52:54.999Z,19.40
2018-06-14T19:57:57.229Z,19.30
2018-06-14T20:02:59.510Z,19.30
2018-06-14T20:08:02.303Z,19.20
2018-06-14T20:13:04.669Z,19.00
2018-06-14T20:18:06.849Z,19.00
2018-06-14T20:23:09.218Z,18.90
2018-06-14T20:28:11.575Z,18.80
2018-06-14T20:33:14.014Z,18.90
2018-06-14T20:38:16.209Z,18.70
2018-06-14T20:43:18.403Z,18.60
2018-06-14T20:48:20.551Z,18.60
2018-06-14T20:53:22.838Z,18.60
2018-06-14T20:58:25.022Z,18.50
2018-06-14T21:03:27.189Z,18.40
2018-06-14T21:08:29.392Z,18.40
2018-06-14T21:13:31.797Z,18.30
2018-06-14T21:18:34.090Z,18.30
2018-06-14T21:23:36.253Z,18.20
2018-06-14T21:28:38.441Z,18.20
2018-06-14T21:33:40.604Z,18.00
2018-06-14T21:38:42.770Z,18.00
2018-06-14T21:43:44.959Z,17.90
2018-06-14T21:48:47.149Z,17.90
2018-06-14T21:53:49.313Z,17.90
2018-06-14T21:58:51.474Z,17.90
2018-06-14T22:03:58.098Z,18.00
2018-06-14T22:09:00.446Z,17.80
2018-06-14T22:14:02.626Z,17.60
2018-06-14T22:19:05.026Z,17.50
2018-06-14T22:24:07.185Z,17.50
2018-06-14T22:29:09.333Z,17.50
2018-06-14T22:35:21.814Z,17.50
2018-06-14T22:40:24.103Z,17.40
2018-06-14T22:45:26.290Z,17.20
2018-06-14T22:50:40.054Z,17.20
2018-06-14T22:55:42.257Z,17.30
2018-06-14T23:01:50.568Z,17.10
2018-06-14T23:06:52.786Z,17.20
2018-06-14T23:11:54.930Z,17.20
2018-06-14T23:16:57.094Z,17.10
2018-06-14T23:21:59.274Z,17.20
2018-06-14T23:27:01.456Z,17.10
2018-06-14T23:32:03.645Z,17.10
2018-06-14T23:37:06.046Z,17.20
2018-06-14T23:42:08.202Z,17.20
2018-06-14T23:47:10.434Z,17.10
2018-06-14T23:52:12.709Z,17.00
2018-06-14T23:57:15.026Z,17.10
